createdAt,value
2023-09-25T00:01:48.440Z,11.91
2023-09-25T00:04:16.643Z,11.91
2023-09-25T00:06:43.427Z,11.95
2023-09-25T00:09:12.645Z,11.92
2023-09-25T00:11:39.310Z,11.93
2023-09-25T00:14:06.820Z,11.88
2023-09-25T00:16:33.667Z,11.87
2023-09-25T00:19:00.301Z,11.81
2023-09-25T00:21:28.069Z,11.76
2023-09-25T00:23:55.647Z,11.72
2023-09-25T00:26:22.326Z,11.68
2023-09-25T00:28:50.720Z,11.64
2023-09-25T00:31:17.445Z,11.66
2023-09-25T00:33:45.391Z,11.65
2023-09-25T00:36:12.356Z,11.66
2023-09-25T00:38:38.947Z,11.65
2023-09-25T00:41:06.782Z,11.62
2023-09-25T00:43:33.286Z,11.57
2023-09-25T00:46:00.492Z,11.51
2023-09-25T00:48:29.426Z,11.47
2023-09-25T00:51:00.212Z,11.45
2023-09-25T00:53:28.229Z,11.46
2023-09-25T00:55:56.112Z,11.44
2023-09-25T00:58:23.796Z,11.41
2023-09-25T01:00:51.942Z,11.41
2023-09-25T01:03:19.897Z,11.40
2023-09-25T01:05:46.514Z,11.39
2023-09-25T01:08:14.047Z,11.38
2023-09-25T01:10:42.005Z,11.39
2023-09-25T01:13:11.155Z,11.39
2023-09-25T01:15:38.382Z,11.39
2023-09-25T01:18:05.532Z,11.35
2023-09-25T01:20:33.033Z,11.31
2023-09-25T01:22:59.993Z,11.31
2023-09-25T01:25:28.222Z,11.29
2023-09-25T01:27:57.244Z,11.30
2023-09-25T01:30:25.247Z,11.31
2023-09-25T01:32:53.625Z,11.34
2023-09-25T01:35:24.844Z,11.28
2023-09-25T01:37:59.636Z,11.23
2023-09-25T01:40:26.342Z,11.16
2023-09-25T01:42:53.007Z,11.15
2023-09-25T01:45:20.891Z,11.15
2023-09-25T01:47:53.049Z,11.14
2023-09-25T01:50:29.216Z,11.10
2023-09-25T01:53:01.647Z,11.05
2023-09-25T01:55:33.607Z,11.00
2023-09-25T01:58:01.388Z,11.00
2023-09-25T02:00:29.052Z,10.99
2023-09-25T02:02:55.972Z,10.95
2023-09-25T02:05:25.089Z,10.91
2023-09-25T02:07:52.532Z,10.91
2023-09-25T02:10:19.402Z,10.91
2023-09-25T02:12:46.049Z,10.93
2023-09-25T02:15:14.428Z,10.98
2023-09-25T02:17:41.059Z,10.92
2023-09-25T02:20:27.115Z,10.84
2023-09-25T02:22:53.702Z,10.80
2023-09-25T02:25:20.924Z,10.77
2023-09-25T02:27:48.230Z,10.75
2023-09-25T02:30:15.520Z,10.72
2023-09-25T02:32:45.319Z,10.72
2023-09-25T02:35:14.680Z,10.68
2023-09-25T02:37:44.545Z,10.68
2023-09-25T02:40:16.317Z,10.66
2023-09-25T02:42:44.230Z,10.70
2023-09-25T02:45:11.805Z,10.61
2023-09-25T02:47:38.575Z,10.58
2023-09-25T02:50:06.728Z,10.63
2023-09-25T02:52:33.643Z,10.63
2023-09-25T02:55:00.201Z,10.61
2023-09-25T02:57:26.808Z,10.59
2023-09-25T02:59:54.088Z,10.59
2023-09-25T03:02:21.754Z,10.57
2023-09-25T03:04:48.606Z,10.59
2023-09-25T03:07:15.403Z,10.58
2023-09-25T03:09:42.411Z,10.57
2023-09-25T03:12:09.222Z,10.57
2023-09-25T03:14:35.868Z,10.54
2023-09-25T03:17:02.429Z,10.51
2023-09-25T03:19:34.588Z,10.51
2023-09-25T03:22:01.075Z,10.48
2023-09-25T03:24:27.937Z,10.46
2023-09-25T03:26:54.825Z,10.43
2023-09-25T03:29:22.141Z,10.43
2023-09-25T03:31:48.875Z,10.43
2023-09-25T03:34:15.409Z,10.41
2023-09-25T03:36:41.945Z,10.39
2023-09-25T03:39:10.060Z,10.39
2023-09-25T03:41:36.623Z,10.35
2023-09-25T03:44:03.172Z,10.34
2023-09-25T03:46:29.872Z,10.33
2023-09-25T03:48:56.435Z,10.30
2023-09-25T03:51:23.062Z,10.35
2023-09-25T03:53:50.447Z,10.35
2023-09-25T03:56:18.202Z,10.31
2023-09-25T03:58:44.827Z,10.27
2023-09-25T04:01:11.419Z,10.28
2023-09-25T04:03:38.235Z,10.21
2023-09-25T04:06:04.892Z,10.25
2023-09-25T04:08:31.375Z,10.24
2023-09-25T04:10:58.378Z,10.20
2023-09-25T04:13:24.822Z,10.18
2023-09-25T04:15:54.385Z,10.16
2023-09-25T04:18:21.292Z,10.12
2023-09-25T04:20:48.428Z,10.13
2023-09-25T04:23:16.738Z,10.11
2023-09-25T04:25:43.299Z,10.11
2023-09-25T04:28:15.302Z,10.11
2023-09-25T04:30:41.827Z,10.06
2023-09-25T04:33:08.422Z,10.09
2023-09-25T04:35:35.137Z,10.12
2023-09-25T04:38:07.875Z,10.13
2023-09-25T04:40:34.502Z,10.15
2023-09-25T04:43:04.310Z,10.15
2023-09-25T04:45:31.605Z,10.15
2023-09-25T04:47:58.970Z,10.14
2023-09-25T04:50:25.896Z,10.03
2023-09-25T04:52:53.419Z,9.95
2023-09-25T04:55:20.182Z,9.92
2023-09-25T04:57:48.695Z,9.94
2023-09-25T05:00:23.370Z,9.92
2023-09-25T05:02:50.637Z,9.91
2023-09-25T05:05:18.757Z,9.92
2023-09-25T05:07:48.992Z,9.91
2023-09-25T05:10:18.027Z,9.87
2023-09-25T05:12:45.800Z,9.86
2023-09-25T05:15:13.882Z,9.90
2023-09-25T05:17:44.741Z,9.92
2023-09-25T05:20:17.438Z,9.87
2023-09-25T05:22:47.930Z,9.84
2023-09-25T05:25:16.195Z,9.83
2023-09-25T05:27:46.393Z,9.86
2023-09-25T05:30:14.214Z,9.83
2023-09-25T05:32:42.803Z,9.87
2023-09-25T05:35:10.463Z,9.89
2023-09-25T05:37:39.168Z,9.91
2023-09-25T05:40:06.736Z,9.88
2023-09-25T05:42:33.938Z,9.88
2023-09-25T05:45:00.532Z,9.85
2023-09-25T05:47:27.112Z,9.80
2023-09-25T05:49:53.828Z,9.74
2023-09-25T05:52:20.609Z,9.80
2023-09-25T05:54:47.758Z,9.85
2023-09-25T05:57:14.384Z,9.87
2023-09-25T05:59:41.346Z,9.87
2023-09-25T06:02:08.443Z,10.01
2023-09-25T06:04:39.295Z,10.62
2023-09-25T06:07:07.790Z,11.30
2023-09-25T06:09:34.939Z,11.77
2023-09-25T06:12:02.589Z,12.19
2023-09-25T06:14:29.554Z,12.57
2023-09-25T06:16:58.105Z,13.03
2023-09-25T06:19:26.105Z,13.40
2023-09-25T06:21:54.149Z,13.70
2023-09-25T06:24:23.074Z,13.57
2023-09-25T06:26:50.887Z,13.11
2023-09-25T06:29:18.094Z,12.57
2023-09-25T06:31:59.622Z,12.11
2023-09-25T06:34:34.026Z,11.82
2023-09-25T06:37:08.620Z,11.72
2023-09-25T06:39:37.951Z,11.58
2023-09-25T06:42:04.778Z,11.46
2023-09-25T06:44:31.741Z,11.49
2023-09-25T06:46:59.087Z,11.51
2023-09-25T06:49:26.008Z,11.57
2023-09-25T06:51:52.837Z,11.69
2023-09-25T06:54:19.673Z,11.87
2023-09-25T06:56:46.308Z,12.03
2023-09-25T06:59:14.148Z,12.14
2023-09-25T07:01:41.175Z,12.22
2023-09-25T07:04:08.033Z,12.30
2023-09-25T07:06:35.123Z,12.43
2023-09-25T07:09:01.971Z,12.57
2023-09-25T07:11:28.768Z,12.68
2023-09-25T07:13:55.516Z,12.77
2023-09-25T07:16:22.946Z,12.80
2023-09-25T07:18:50.696Z,12.87
2023-09-25T07:21:19.097Z,12.99
2023-09-25T07:23:45.743Z,13.04
2023-09-25T07:26:12.952Z,13.10
2023-09-25T07:28:39.844Z,13.09
2023-09-25T07:31:07.831Z,13.22
2023-09-25T07:33:36.144Z,13.37
2023-09-25T07:36:06.849Z,13.43
2023-09-25T07:38:35.112Z,13.49
2023-09-25T07:41:02.908Z,13.51
2023-09-25T07:46:05.050Z,13.64
2023-09-25T07:48:32.215Z,13.72
2023-09-25T07:51:03.345Z,13.74
2023-09-25T07:53:29.927Z,13.77
2023-09-25T07:55:56.707Z,13.85
2023-09-25T07:58:24.067Z,13.94
2023-09-25T08:00:53.349Z,14.07
2023-09-25T08:03:24.433Z,14.13
2023-09-25T08:05:54.653Z,14.23
2023-09-25T08:08:21.673Z,14.28
2023-09-25T08:10:49.319Z,14.31
2023-09-25T08:13:19.381Z,14.39
2023-09-25T08:15:48.669Z,14.47
2023-09-25T08:18:16.862Z,14.60
2023-09-25T08:20:44.615Z,14.71
2023-09-25T08:23:11.437Z,14.81
2023-09-25T08:25:39.766Z,14.90
2023-09-25T08:28:06.371Z,14.98
2023-09-25T08:30:34.130Z,15.07
2023-09-25T08:33:00.938Z,15.13
2023-09-25T08:35:27.520Z,15.22
2023-09-25T08:37:54.075Z,15.32
2023-09-25T08:40:22.592Z,15.43
2023-09-25T08:43:01.638Z,15.51
2023-09-25T08:45:33.224Z,15.65
2023-09-25T08:48:00.124Z,15.74
2023-09-25T08:50:27.186Z,15.88
2023-09-25T08:52:54.061Z,16.00
2023-09-25T08:55:20.923Z,16.14
2023-09-25T08:57:48.005Z,16.31
2023-09-25T09:00:16.551Z,16.53
2023-09-25T09:02:45.204Z,16.72
2023-09-25T09:05:14.539Z,16.85
2023-09-25T09:08:00.844Z,17.06
2023-09-25T09:10:35.279Z,17.29
2023-09-25T09:13:03.814Z,17.45
2023-09-25T09:15:32.630Z,17.66
2023-09-25T09:17:59.681Z,17.86
2023-09-25T09:20:38.669Z,18.05
2023-09-25T09:23:07.465Z,18.17
2023-09-25T09:25:35.335Z,18.31
2023-09-25T09:28:08.050Z,18.43
2023-09-25T09:30:34.675Z,18.54
2023-09-25T09:33:01.276Z,18.67
2023-09-25T09:35:28.977Z,18.81
2023-09-25T09:37:57.862Z,18.96
2023-09-25T09:40:28.629Z,19.11
2023-09-25T09:42:55.875Z,19.25
2023-09-25T09:45:23.342Z,19.27
2023-09-25T09:47:54.116Z,19.37
2023-09-25T09:50:26.798Z,19.31
2023-09-25T09:52:55.187Z,19.32
2023-09-25T09:55:22.727Z,19.38
2023-09-25T09:57:52.478Z,19.30
2023-09-25T10:00:19.218Z,19.35
2023-09-25T10:02:48.370Z,19.60
2023-09-25T10:05:20.316Z,19.80
2023-09-25T10:08:12.947Z,20.00
2023-09-25T10:10:42.738Z,20.00
2023-09-25T10:13:27.725Z,20.10
2023-09-25T10:16:02.814Z,20.21
2023-09-25T10:18:31.891Z,20.33
2023-09-25T10:21:11.116Z,20.32
2023-09-25T10:23:49.918Z,20.34
2023-09-25T10:26:26.015Z,20.47
2023-09-25T10:29:10.058Z,20.61
2023-09-25T10:31:36.815Z,20.78
2023-09-25T10:34:05.667Z,20.86
2023-09-25T10:36:43.662Z,20.90
2023-09-25T10:39:14.929Z,20.93
2023-09-25T10:41:44.548Z,20.99
2023-09-25T10:44:20.223Z,20.95
2023-09-25T10:46:46.931Z,21.06
2023-09-25T10:49:13.530Z,21.27
2023-09-25T10:51:40.734Z,21.38
2023-09-25T10:54:07.500Z,21.35
2023-09-25T10:56:34.430Z,21.36
2023-09-25T10:59:02.283Z,21.31
2023-09-25T11:01:30.417Z,21.48
2023-09-25T11:04:01.359Z,21.61
2023-09-25T11:06:29.326Z,21.65
2023-09-25T11:09:07.489Z,21.83
2023-09-25T11:11:35.519Z,21.75
2023-09-25T11:14:02.388Z,21.82
2023-09-25T11:16:30.084Z,21.88
2023-09-25T11:19:13.357Z,22.04
2023-09-25T11:21:41.085Z,22.08
2023-09-25T11:24:10.949Z,22.21
2023-09-25T11:26:43.412Z,22.38
2023-09-25T11:29:11.971Z,22.30
2023-09-25T11:31:59.005Z,22.27
2023-09-25T11:34:27.068Z,22.28
2023-09-25T11:36:53.945Z,22.33
2023-09-25T11:39:20.592Z,22.28
2023-09-25T11:41:49.851Z,22.26
2023-09-25T11:44:16.398Z,22.36
2023-09-25T11:46:44.380Z,22.53
2023-09-25T11:49:12.537Z,22.66
2023-09-25T11:51:39.377Z,22.75
2023-09-25T11:54:07.331Z,22.87
2023-09-25T11:56:36.331Z,22.79
2023-09-25T11:59:06.092Z,22.88
2023-09-25T12:01:33.241Z,23.13
2023-09-25T12:04:03.762Z,23.32
2023-09-25T12:06:31.788Z,23.42
2023-09-25T12:09:02.559Z,23.42
2023-09-25T12:11:30.462Z,23.39
2023-09-25T12:13:57.278Z,23.40
2023-09-25T12:16:24.196Z,23.46
2023-09-25T12:18:51.778Z,23.34
2023-09-25T12:21:19.203Z,23.34
2023-09-25T12:23:45.739Z,23.36
2023-09-25T12:26:13.699Z,23.41
2023-09-25T12:28:40.746Z,23.50
2023-09-25T12:31:07.701Z,23.58
2023-09-25T12:33:35.821Z,23.67
2023-09-25T12:36:02.710Z,23.77
2023-09-25T12:38:31.661Z,23.79
2023-09-25T12:40:58.172Z,23.83
2023-09-25T12:43:27.384Z,23.94
2023-09-25T12:45:54.055Z,23.97
2023-09-25T12:48:21.206Z,23.90
2023-09-25T12:50:49.321Z,23.92
2023-09-25T12:53:19.126Z,23.95
2023-09-25T12:55:47.456Z,23.96
2023-09-25T12:58:14.421Z,24.09
2023-09-25T13:00:41.339Z,24.15
2023-09-25T13:03:08.081Z,24.23
2023-09-25T13:05:34.914Z,24.19
2023-09-25T13:08:01.779Z,24.22
2023-09-25T13:10:31.165Z,24.19
2023-09-25T13:13:00.871Z,24.20
2023-09-25T13:15:29.481Z,24.15
2023-09-25T13:17:56.116Z,24.00
2023-09-25T13:20:23.109Z,24.02
2023-09-25T13:22:50.126Z,24.08
2023-09-25T13:25:16.850Z,24.06
2023-09-25T13:27:51.040Z,23.93
2023-09-25T13:30:20.764Z,23.87
2023-09-25T13:32:50.576Z,23.98
2023-09-25T13:35:18.196Z,24.21
2023-09-25T13:37:45.146Z,24.34
2023-09-25T13:40:19.103Z,24.38
2023-09-25T13:42:46.885Z,24.33
2023-09-25T13:45:15.501Z,24.19
2023-09-25T13:47:44.703Z,24.07
2023-09-25T13:50:16.045Z,24.15
2023-09-25T13:52:43.484Z,24.18
2023-09-25T13:55:16.155Z,24.19
2023-09-25T13:57:46.163Z,24.21
2023-09-25T14:00:13.396Z,24.27
2023-09-25T14:02:44.527Z,24.21
2023-09-25T14:05:13.221Z,24.26
2023-09-25T14:07:40.817Z,24.27
2023-09-25T14:10:09.424Z,24.20
2023-09-25T14:12:37.698Z,24.14
2023-09-25T14:15:06.468Z,24.11
2023-09-25T14:17:33.035Z,24.08
2023-09-25T14:19:59.729Z,24.08
2023-09-25T14:22:26.513Z,24.11
2023-09-25T14:24:54.412Z,24.18
2023-09-25T14:27:22.432Z,24.15
2023-09-25T14:29:50.172Z,24.11
2023-09-25T14:32:17.120Z,24.12
2023-09-25T14:34:43.579Z,24.13
2023-09-25T14:37:10.298Z,24.10
2023-09-25T14:39:37.860Z,24.00
2023-09-25T14:42:05.125Z,23.99
2023-09-25T14:44:34.603Z,24.00
2023-09-25T14:47:01.160Z,23.99
2023-09-25T14:49:28.704Z,24.02
2023-09-25T14:51:58.638Z,23.97
2023-09-25T14:54:26.337Z,23.77
2023-09-25T14:56:53.223Z,23.65
2023-09-25T14:59:20.017Z,23.48
2023-09-25T15:01:49.478Z,23.43
2023-09-25T15:04:19.874Z,23.41
2023-09-25T15:06:46.793Z,23.36
2023-09-25T15:09:15.765Z,23.39
2023-09-25T15:11:47.390Z,23.47
2023-09-25T15:14:15.078Z,23.48
2023-09-25T15:16:42.214Z,23.38
2023-09-25T15:19:10.123Z,23.42
2023-09-25T15:21:37.147Z,23.36
2023-09-25T15:24:05.481Z,23.35
2023-09-25T15:26:32.189Z,23.38
2023-09-25T15:28:58.993Z,23.27
2023-09-25T15:31:25.686Z,23.12
2023-09-25T15:33:53.294Z,23.01
2023-09-25T15:36:20.225Z,22.93
2023-09-25T15:38:47.492Z,22.85
2023-09-25T15:41:14.557Z,22.71
2023-09-25T15:43:41.509Z,22.54
2023-09-25T15:46:17.234Z,22.38
2023-09-25T15:48:44.631Z,22.22
2023-09-25T15:51:15.591Z,22.10
2023-09-25T15:53:44.757Z,22.00
2023-09-25T15:56:12.611Z,21.90
2023-09-25T15:58:42.776Z,21.83
2023-09-25T16:01:10.140Z,21.75
2023-09-25T16:03:39.195Z,21.69
2023-09-25T16:06:07.058Z,21.61
2023-09-25T16:08:37.126Z,21.48
2023-09-25T16:11:04.200Z,21.45
2023-09-25T16:13:31.072Z,21.39
2023-09-25T16:15:57.729Z,21.36
2023-09-25T16:18:24.909Z,21.31
2023-09-25T16:20:51.779Z,21.28
2023-09-25T16:23:18.410Z,21.25
2023-09-25T16:25:45.298Z,21.22
2023-09-25T16:28:14.029Z,21.13
2023-09-25T16:30:42.607Z,21.03
2023-09-25T16:33:09.457Z,20.94
2023-09-25T16:35:36.588Z,20.87
2023-09-25T16:38:05.179Z,20.79
2023-09-25T16:40:33.391Z,20.68
2023-09-25T16:43:00.065Z,20.62
2023-09-25T16:45:27.488Z,20.54
2023-09-25T16:47:54.622Z,20.45
2023-09-25T16:50:30.912Z,20.38
2023-09-25T16:52:57.684Z,20.31
2023-09-25T16:55:24.204Z,20.23
2023-09-25T16:57:56.788Z,20.16
2023-09-25T17:00:24.445Z,20.09
2023-09-25T17:02:51.339Z,20.03
2023-09-25T17:05:18.655Z,19.94
2023-09-25T17:07:46.873Z,19.86
2023-09-25T17:10:13.715Z,19.79
2023-09-25T17:12:42.427Z,19.70
2023-09-25T17:15:12.103Z,19.61
2023-09-25T17:17:40.826Z,19.53
2023-09-25T17:20:08.205Z,19.45
2023-09-25T17:22:42.703Z,19.38
2023-09-25T17:25:10.049Z,19.30
2023-09-25T17:27:37.770Z,19.26
2023-09-25T17:30:04.704Z,19.25
2023-09-25T17:32:35.076Z,19.22
2023-09-25T17:35:02.334Z,19.17
2023-09-25T17:37:32.167Z,19.11
2023-09-25T17:39:58.740Z,19.04
2023-09-25T17:42:26.249Z,18.98
2023-09-25T17:44:52.731Z,18.96
2023-09-25T17:47:20.288Z,18.85
2023-09-25T17:49:46.770Z,18.84
2023-09-25T17:52:23.842Z,18.81
2023-09-25T17:54:51.690Z,18.73
2023-09-25T17:57:18.710Z,18.67
2023-09-25T17:59:45.168Z,18.60
2023-09-25T18:02:12.229Z,18.58
2023-09-25T18:04:39.385Z,18.53
2023-09-25T18:07:07.952Z,18.48
2023-09-25T18:09:34.726Z,18.44
2023-09-25T18:12:02.915Z,18.34
2023-09-25T18:14:29.509Z,18.27
2023-09-25T18:16:56.140Z,18.22
2023-09-25T18:19:23.199Z,18.21
2023-09-25T18:21:49.917Z,18.12
2023-09-25T18:24:17.072Z,18.04
2023-09-25T18:26:44.314Z,17.98
2023-09-25T18:29:11.129Z,17.90
2023-09-25T18:31:37.671Z,17.91
2023-09-25T18:34:04.389Z,17.80
2023-09-25T18:36:31.394Z,17.76
2023-09-25T18:38:58.472Z,17.77
2023-09-25T18:41:50.032Z,17.72
2023-09-25T18:44:22.062Z,17.63
2023-09-25T18:46:49.340Z,17.63
2023-09-25T18:49:16.052Z,17.58
2023-09-25T18:51:43.230Z,17.55
2023-09-25T18:54:10.049Z,17.52
2023-09-25T18:56:36.542Z,17.50
2023-09-25T18:59:03.621Z,17.37
2023-09-25T19:01:34.034Z,17.37
2023-09-25T19:04:00.594Z,17.29
2023-09-25T19:06:36.964Z,17.25
2023-09-25T19:09:07.215Z,17.25
2023-09-25T19:11:35.349Z,17.20
2023-09-25T19:14:01.890Z,17.18
2023-09-25T19:16:29.307Z,17.13
2023-09-25T19:18:59.070Z,17.10
2023-09-25T19:21:29.212Z,17.01
2023-09-25T19:23:56.916Z,16.95
2023-09-25T19:26:27.455Z,16.93
2023-09-25T19:29:00.214Z,16.92
2023-09-25T19:31:38.161Z,16.90
2023-09-25T19:34:08.024Z,16.84
2023-09-25T19:36:44.836Z,16.80
2023-09-25T19:39:11.419Z,16.74
2023-09-25T19:41:39.120Z,16.69
2023-09-25T19:44:06.921Z,16.72
2023-09-25T19:46:38.143Z,16.70
2023-09-25T19:49:05.451Z,16.66
2023-09-25T19:51:35.598Z,16.62
2023-09-25T19:54:04.942Z,16.54
2023-09-25T19:56:32.132Z,16.55
2023-09-25T19:59:01.444Z,16.50
2023-09-25T20:01:29.205Z,16.46
2023-09-25T20:03:57.847Z,16.49
2023-09-25T20:06:32.068Z,16.44
2023-09-25T20:08:58.972Z,16.36
2023-09-25T20:11:25.585Z,16.33
2023-09-25T20:13:55.678Z,16.32
2023-09-25T20:16:24.640Z,16.28
2023-09-25T20:18:51.616Z,16.29
2023-09-25T20:21:27.510Z,16.25
2023-09-25T20:23:54.165Z,16.19
2023-09-25T20:26:20.712Z,16.17
2023-09-25T20:28:47.336Z,16.10
2023-09-25T20:31:17.037Z,16.10
2023-09-25T20:33:43.755Z,16.02
2023-09-25T20:36:10.395Z,16.01
2023-09-25T20:38:37.177Z,15.97
2023-09-25T20:41:03.846Z,15.97
2023-09-25T20:43:31.637Z,15.94
2023-09-25T20:45:58.231Z,15.92
2023-09-25T20:48:26.158Z,15.87
2023-09-25T20:50:52.936Z,15.88
2023-09-25T20:53:19.583Z,15.86
2023-09-25T20:55:46.133Z,15.85
2023-09-25T20:58:12.715Z,15.83
2023-09-25T21:00:40.889Z,15.79
2023-09-25T21:03:08.247Z,15.73
2023-09-25T21:05:35.066Z,15.70
2023-09-25T21:08:01.850Z,15.67
2023-09-25T21:10:28.519Z,15.59
2023-09-25T21:12:55.280Z,15.56
2023-09-25T21:15:21.840Z,15.53
2023-09-25T21:17:48.375Z,15.50
2023-09-25T21:20:15.174Z,15.48
2023-09-25T21:22:41.996Z,15.44
2023-09-25T21:25:09.447Z,15.46
2023-09-25T21:27:36.201Z,15.48
2023-09-25T21:30:03.637Z,15.41
2023-09-25T21:32:30.334Z,15.42
2023-09-25T21:34:56.974Z,15.35
2023-09-25T21:37:23.481Z,15.31
2023-09-25T21:39:50.874Z,15.27
2023-09-25T21:42:18.521Z,15.26
2023-09-25T21:44:45.363Z,15.24
2023-09-25T21:47:12.193Z,15.20
2023-09-25T21:49:38.737Z,15.15
2023-09-25T21:52:05.814Z,15.13
2023-09-25T21:54:33.266Z,15.11
2023-09-25T21:57:00.276Z,15.05
2023-09-25T21:59:27.288Z,15.04
2023-09-25T22:01:54.107Z,15.05
2023-09-25T22:04:20.745Z,15.08
2023-09-25T22:06:47.910Z,15.07
2023-09-25T22:09:15.003Z,15.06
2023-09-25T22:11:41.960Z,15.01
2023-09-25T22:14:08.888Z,14.97
2023-09-25T22:16:36.117Z,14.94
2023-09-25T22:19:04.307Z,14.90
2023-09-25T22:21:31.297Z,14.87
2023-09-25T22:23:58.770Z,14.84
2023-09-25T22:26:25.593Z,14.82
2023-09-25T22:28:54.095Z,14.81
2023-09-25T22:31:21.756Z,14.79
2023-09-25T22:33:48.933Z,14.78
2023-09-25T22:36:16.783Z,14.77
2023-09-25T22:38:46.313Z,14.75
2023-09-25T22:41:14.148Z,14.71
2023-09-25T22:43:40.752Z,14.67
2023-09-25T22:46:08.545Z,14.64
2023-09-25T22:48:35.178Z,14.62
2023-09-25T22:51:02.186Z,14.59
2023-09-25T22:53:30.339Z,14.58
2023-09-25T22:56:04.729Z,14.56
2023-09-25T22:58:31.584Z,14.53
2023-09-25T23:00:58.518Z,14.54
2023-09-25T23:03:25.532Z,14.48
2023-09-25T23:05:52.274Z,14.47
2023-09-25T23:08:18.739Z,14.45
2023-09-25T23:10:45.566Z,14.42
2023-09-25T23:13:12.123Z,14.36
2023-09-25T23:15:38.656Z,14.37
2023-09-25T23:18:05.479Z,14.35
2023-09-25T23:20:32.478Z,14.36
2023-09-25T23:22:59.152Z,14.31
2023-09-25T23:25:28.046Z,14.30
2023-09-25T23:27:55.359Z,14.30
2023-09-25T23:30:24.344Z,14.25
2023-09-25T23:32:52.419Z,14.24
2023-09-25T23:35:20.258Z,14.23
2023-09-25T23:37:50.981Z,14.24
2023-09-25T23:40:22.425Z,14.24
2023-09-25T23:42:50.159Z,14.22
2023-09-25T23:45:20.205Z,14.21
2023-09-25T23:47:48.942Z,14.16
2023-09-25T23:50:17.020Z,14.12
2023-09-25T23:52:47.845Z,14.09
2023-09-25T23:55:15.944Z,14.07
2023-09-25T23:57:42.810Z,14.07
